createdAt,value
2023-01-22T00:02:32.336Z,79.20
2023-01-22T00:05:34.333Z,79.22
2023-01-22T00:08:37.187Z,78.51
2023-01-22T00:11:38.476Z,78.38
2023-01-22T00:14:41.441Z,79.34
2023-01-22T00:17:42.744Z,79.12
2023-01-22T00:20:48.946Z,79.62
2023-01-22T00:23:51.509Z,79.69
2023-01-22T00:26:52.802Z,79.59
2023-01-22T00:29:55.316Z,79.68
2023-01-22T00:32:56.595Z,79.13
2023-01-22T00:36:05.351Z,79.84
2023-01-22T00:39:07.942Z,79.10
2023-01-22T00:42:09.215Z,78.81
2023-01-22T00:45:14.577Z,79.16
2023-01-22T00:48:15.842Z,79.53
2023-01-22T00:51:19.499Z,78.49
2023-01-22T00:54:22.060Z,79.10
2023-01-22T00:57:23.507Z,78.05
2023-01-22T01:00:26.270Z,79.15
2023-01-22T01:03:29.538Z,79.06
2023-01-22T01:06:32.839Z,79.92
2023-01-22T01:09:35.438Z,79.30
2023-01-22T01:12:36.712Z,80.19
2023-01-22T01:15:39.496Z,78.77
2023-01-22T01:18:40.999Z,79.52
2023-01-22T01:21:44.897Z,79.54
2023-01-22T01:24:47.412Z,79.52
2023-01-22T01:27:48.677Z,79.08
2023-01-22T01:30:51.269Z,78.33
2023-01-22T01:33:52.814Z,78.83
2023-01-22T01:40:15.976Z,79.64
2023-01-22T01:43:19.110Z,79.66
2023-01-22T01:46:25.978Z,79.46
2023-01-22T01:49:33.054Z,77.90
2023-01-22T01:52:37.049Z,79.82
2023-01-22T02:05:46.025Z,78.70
2023-01-22T02:08:51.178Z,79.65
2023-01-22T02:11:54.639Z,79.21
2023-01-22T02:14:56.302Z,78.51
2023-01-22T02:17:58.845Z,79.63
2023-01-22T02:21:01.044Z,79.88
2023-01-22T02:24:04.599Z,79.35
2023-01-22T02:27:05.892Z,78.06
2023-01-22T02:30:09.704Z,78.92
2023-01-22T02:33:11.349Z,79.59
2023-01-22T02:36:14.631Z,79.67
2023-01-22T02:39:17.154Z,78.76
2023-01-22T02:42:18.541Z,78.31
2023-01-22T02:45:21.099Z,78.84
2023-01-22T02:48:22.360Z,79.77
2023-01-22T02:51:27.084Z,78.80
2023-01-22T02:54:29.615Z,79.32
2023-01-22T02:57:31.882Z,79.13
2023-01-22T03:00:34.526Z,79.78
2023-01-22T03:03:35.847Z,79.75
2023-01-22T03:06:41.360Z,78.46
2023-01-22T03:09:42.826Z,79.64
2023-01-22T03:13:05.644Z,79.04
2023-01-22T03:16:25.571Z,80.11
2023-01-22T03:19:46.786Z,79.23
2023-01-22T03:22:48.906Z,79.70
2023-01-22T03:25:57.094Z,78.83
2023-01-22T03:28:59.605Z,79.27
2023-01-22T03:32:00.953Z,79.38
2023-01-22T03:35:03.567Z,79.39
2023-01-22T03:38:07.097Z,80.66
2023-01-22T03:41:12.436Z,80.00
2023-01-22T03:44:14.464Z,79.54
2023-01-22T03:47:18.441Z,79.25
2023-01-22T03:50:20.306Z,79.60
2023-01-22T03:53:23.709Z,78.72
2023-01-22T03:56:27.133Z,79.11
2023-01-22T03:59:28.454Z,79.09
2023-01-22T04:02:31.104Z,80.05
2023-01-22T04:05:33.730Z,79.01
2023-01-22T04:11:58.883Z,79.34
2023-01-22T04:15:00.177Z,79.88
2023-01-22T04:18:02.682Z,79.99
2023-01-22T04:21:06.290Z,78.74
2023-01-22T04:24:08.329Z,78.86
2023-01-22T04:30:30.640Z,78.79
2023-01-22T04:33:33.352Z,79.54
2023-01-22T04:36:34.631Z,79.08
2023-01-22T04:39:36.583Z,78.91
2023-01-22T04:42:39.127Z,78.86
2023-01-22T04:45:40.415Z,79.26
2023-01-22T04:48:43.023Z,79.55
2023-01-22T04:51:44.423Z,79.86
2023-01-22T04:54:47.589Z,79.05
2023-01-22T04:57:48.896Z,80.09
2023-01-22T05:00:50.284Z,79.95
2023-01-22T05:03:53.088Z,79.44
2023-01-22T05:06:54.427Z,80.14
2023-01-22T05:09:56.436Z,80.18
2023-01-22T05:13:01.647Z,78.45
2023-01-22T05:16:03.465Z,78.52
2023-01-22T05:22:25.414Z,78.82
2023-01-22T05:25:27.916Z,79.30
2023-01-22T05:28:29.248Z,79.92
2023-01-22T05:31:31.804Z,80.25
2023-01-22T05:34:37.795Z,80.16
2023-01-22T05:37:40.321Z,79.89
2023-01-22T05:40:43.476Z,79.11
2023-01-22T05:43:45.052Z,79.73
2023-01-22T05:46:47.586Z,79.28
2023-01-22T05:49:48.859Z,79.30
2023-01-22T05:52:54.144Z,80.08
2023-01-22T05:56:00.787Z,78.80
2023-01-22T05:59:02.076Z,80.39
2023-01-22T06:02:03.485Z,79.27
2023-01-22T06:05:05.855Z,79.61
2023-01-22T06:08:08.920Z,78.45
2023-01-22T06:11:14.449Z,78.43
2023-01-22T06:14:15.940Z,79.52
2023-01-22T06:17:18.575Z,79.73
2023-01-22T06:20:20.126Z,79.79
2023-01-22T06:23:22.671Z,79.20
2023-01-22T06:26:24.915Z,78.58
2023-01-22T06:29:27.542Z,79.16
2023-01-22T06:32:30.163Z,79.51
2023-01-22T06:35:31.469Z,80.12
2023-01-22T06:38:32.883Z,79.72
2023-01-22T06:41:35.021Z,79.86
2023-01-22T06:44:37.659Z,79.47
2023-01-22T06:47:43.174Z,80.13
2023-01-22T06:50:44.711Z,79.78
2023-01-22T06:53:47.499Z,80.00
2023-01-22T06:56:49.537Z,79.47
2023-01-22T06:59:52.170Z,80.49
2023-01-22T07:02:55.276Z,79.81
2023-01-22T07:05:57.593Z,80.35
2023-01-22T07:09:00.254Z,79.42
2023-01-22T07:12:02.291Z,80.00
2023-01-22T07:15:06.079Z,80.14
2023-01-22T07:18:07.490Z,80.67
2023-01-22T07:21:11.208Z,80.23
2023-01-22T07:27:35.245Z,80.20
2023-01-22T07:34:01.680Z,79.24
2023-01-22T07:37:04.456Z,79.38
2023-01-22T07:40:08.308Z,80.04
2023-01-22T07:43:14.209Z,78.67
2023-01-22T07:46:16.941Z,79.60
2023-01-22T07:49:19.634Z,78.53
2023-01-22T07:52:21.189Z,78.06
2023-01-22T07:55:24.261Z,78.45
2023-01-22T07:58:26.267Z,78.51
2023-01-22T08:04:49.677Z,78.43
2023-01-22T08:07:51.070Z,77.91
2023-01-22T08:10:53.692Z,77.79
2023-01-22T08:13:55.698Z,79.08
2023-01-22T08:16:57.004Z,80.11
2023-01-22T08:19:58.364Z,79.01
2023-01-22T08:23:00.330Z,78.18
2023-01-22T08:26:03.491Z,79.05
2023-01-22T08:32:26.975Z,79.37
2023-01-22T08:35:29.677Z,78.45
2023-01-22T08:38:30.975Z,78.21
2023-01-22T08:41:33.558Z,77.84
2023-01-22T08:44:35.504Z,78.50
2023-01-22T08:47:38.134Z,78.96
2023-01-22T08:50:40.718Z,78.59
2023-01-22T08:53:43.504Z,77.13
2023-01-22T08:56:48.598Z,77.11
2023-01-22T09:00:00.826Z,79.05
2023-01-22T09:03:02.765Z,77.15
2023-01-22T09:06:05.728Z,78.65
2023-01-22T09:09:07.387Z,78.40
2023-01-22T09:12:09.921Z,78.50
2023-01-22T09:15:12.184Z,78.10
2023-01-22T09:18:14.722Z,78.02
2023-01-22T09:21:15.996Z,79.28
2023-01-22T09:24:18.501Z,78.39
2023-01-22T09:27:21.231Z,77.03
2023-01-22T09:30:25.603Z,76.97
2023-01-22T09:33:28.107Z,77.90
2023-01-22T09:36:30.991Z,78.00
2023-01-22T09:39:32.303Z,78.43
2023-01-22T09:42:37.987Z,78.69
2023-01-22T09:45:40.914Z,77.49
2023-01-22T09:48:47.484Z,78.54
2023-01-22T09:51:53.379Z,78.14
2023-01-22T09:54:56.777Z,78.10
2023-01-22T09:58:03.687Z,76.84
2023-01-22T10:01:06.717Z,77.43
2023-01-22T10:04:24.204Z,76.45
2023-01-22T10:07:30.332Z,77.55
2023-01-22T10:10:33.399Z,77.76
2023-01-22T10:13:36.702Z,78.69
2023-01-22T10:16:39.990Z,78.70
2023-01-22T10:19:45.774Z,77.39
2023-01-22T10:22:48.191Z,77.77
2023-01-22T10:25:53.182Z,77.66
2023-01-22T10:28:57.412Z,76.10
2023-01-22T10:32:02.730Z,77.01
2023-01-22T10:35:07.950Z,77.00
2023-01-22T10:38:22.155Z,77.89
2023-01-22T10:41:25.017Z,77.49
2023-01-22T10:44:26.708Z,77.19
2023-01-22T10:47:30.022Z,76.77
2023-01-22T10:50:31.812Z,76.89
2023-01-22T10:53:36.986Z,76.97
2023-01-22T10:56:40.836Z,77.34
2023-01-22T10:59:49.013Z,76.60
2023-01-22T11:02:51.903Z,77.63
2023-01-22T11:06:00.993Z,77.46
2023-01-22T11:09:08.848Z,77.68
2023-01-22T11:12:18.742Z,76.55
2023-01-22T11:15:25.334Z,76.26
2023-01-22T11:18:31.959Z,76.43
2023-01-22T11:21:37.559Z,76.46
2023-01-22T11:24:46.351Z,76.99
2023-01-22T11:28:04.625Z,76.95
2023-01-22T11:31:28.843Z,77.56
2023-01-22T11:34:51.813Z,77.38
2023-01-22T11:38:16.280Z,76.86
2023-01-22T11:41:31.447Z,77.12
2023-01-22T11:44:52.281Z,76.21
2023-01-22T11:48:13.194Z,77.49
2023-01-22T11:51:29.313Z,77.59
2023-01-22T11:54:56.170Z,75.52
2023-01-22T11:58:08.373Z,76.20
2023-01-22T12:01:30.041Z,77.36
2023-01-22T12:04:51.948Z,77.35
2023-01-22T12:08:23.629Z,77.62
2023-01-22T12:11:52.674Z,78.10
2023-01-22T12:15:27.591Z,76.05
2023-01-22T12:18:59.591Z,76.86
2023-01-22T12:22:09.043Z,76.86
2023-01-22T12:25:17.695Z,76.19
2023-01-22T12:28:25.752Z,76.23
2023-01-22T12:31:32.923Z,75.04
2023-01-22T12:38:16.615Z,76.31
2023-01-22T12:41:33.355Z,77.28
2023-01-22T12:44:47.660Z,77.77
2023-01-22T12:47:56.233Z,77.19
2023-01-22T12:50:59.651Z,77.29
2023-01-22T12:54:10.409Z,76.89
2023-01-22T12:57:23.511Z,76.12
2023-01-22T13:00:35.157Z,76.98
2023-01-22T13:03:38.037Z,76.54
2023-01-22T13:06:44.087Z,76.46
2023-01-22T13:09:47.488Z,77.17
2023-01-22T13:12:55.018Z,77.28
2023-01-22T13:16:02.708Z,75.64
2023-01-22T13:19:18.643Z,76.18
2023-01-22T13:22:23.852Z,75.84
2023-01-22T13:25:28.117Z,76.40
2023-01-22T13:28:30.913Z,76.70
2023-01-22T13:31:35.204Z,76.78
2023-01-22T13:34:36.583Z,76.42
2023-01-22T13:41:06.672Z,77.52
2023-01-22T13:44:18.026Z,78.25
2023-01-22T13:47:28.497Z,77.52
2023-01-22T13:50:31.058Z,76.70
2023-01-22T13:53:41.545Z,76.44
2023-01-22T13:56:43.597Z,77.79
2023-01-22T13:59:54.569Z,76.68
2023-01-22T14:02:56.772Z,75.38
2023-01-22T14:06:08.636Z,77.44
2023-01-22T14:09:10.270Z,76.09
2023-01-22T14:12:17.939Z,76.85
2023-01-22T14:15:21.234Z,76.78
2023-01-22T14:18:24.035Z,76.95
2023-01-22T14:21:25.327Z,77.94
2023-01-22T14:24:28.065Z,77.04
2023-01-22T14:27:41.257Z,76.98
2023-01-22T14:30:45.280Z,76.18
2023-01-22T14:33:46.695Z,77.09
2023-01-22T14:36:49.983Z,77.26
2023-01-22T14:39:51.692Z,78.44
2023-01-22T14:42:54.316Z,79.15
2023-01-22T14:45:56.977Z,78.35
2023-01-22T14:49:02.310Z,79.18
2023-01-22T14:52:04.002Z,79.44
2023-01-22T14:55:08.552Z,78.04
2023-01-22T14:58:10.144Z,78.06
2023-01-22T15:01:17.270Z,78.22
2023-01-22T15:04:18.689Z,79.46
2023-01-22T15:07:22.359Z,80.38
2023-01-22T15:10:25.394Z,79.43
2023-01-22T15:13:27.068Z,79.44
2023-01-22T15:16:29.325Z,78.31
2023-01-22T15:19:40.740Z,78.66
2023-01-22T15:22:44.453Z,79.16
2023-01-22T15:25:55.903Z,78.45
2023-01-22T15:28:57.470Z,79.70
2023-01-22T15:32:01.832Z,79.57
2023-01-22T15:35:03.523Z,79.08
2023-01-22T15:38:06.327Z,78.50
2023-01-22T15:41:18.445Z,78.65
2023-01-22T15:44:22.515Z,77.51
2023-01-22T15:47:24.911Z,77.43
2023-01-22T15:50:28.503Z,76.96
2023-01-22T15:53:29.801Z,77.92
2023-01-22T15:56:36.546Z,78.35
2023-01-22T15:59:40.623Z,77.77
2023-01-22T16:02:43.169Z,77.89
2023-01-22T16:05:44.673Z,77.89
2023-01-22T16:08:48.129Z,78.56
2023-01-22T16:11:49.533Z,78.61
2023-01-22T16:14:52.128Z,79.12
2023-01-22T16:17:54.452Z,79.17
2023-01-22T16:21:00.754Z,79.18
2023-01-22T16:24:02.752Z,79.36
2023-01-22T16:27:05.323Z,79.04
2023-01-22T16:30:09.008Z,79.75
2023-01-22T16:33:19.805Z,78.89
2023-01-22T16:36:23.201Z,79.37
2023-01-22T16:39:26.370Z,77.62
2023-01-22T16:42:29.030Z,78.50
2023-01-22T16:45:31.648Z,78.36
2023-01-22T16:48:33.706Z,78.59
2023-01-22T16:51:36.826Z,77.55
2023-01-22T16:54:38.881Z,78.11
2023-01-22T16:57:41.413Z,77.70
2023-01-22T17:00:43.035Z,78.02
2023-01-22T17:03:46.248Z,78.24
2023-01-22T17:06:49.411Z,79.19
2023-01-22T17:09:51.333Z,78.17
2023-01-22T17:12:52.640Z,78.43
2023-01-22T17:15:56.105Z,78.39
2023-01-22T17:19:00.720Z,77.97
2023-01-22T17:22:02.536Z,79.00
2023-01-22T17:25:06.141Z,79.61
2023-01-22T17:28:08.153Z,79.15
2023-01-22T17:31:12.455Z,79.82
2023-01-22T17:34:15.131Z,79.29
2023-01-22T17:37:17.909Z,78.22
2023-01-22T17:40:19.806Z,77.85
2023-01-22T17:43:21.113Z,77.53
2023-01-22T17:46:25.466Z,78.66
2023-01-22T17:49:28.710Z,79.24
2023-01-22T17:52:30.325Z,77.43
2023-01-22T17:55:33.240Z,77.61
2023-01-22T17:58:34.947Z,76.93
2023-01-22T18:01:39.225Z,78.49
2023-01-22T18:04:41.551Z,78.86
2023-01-22T18:07:42.863Z,78.37
2023-01-22T18:10:44.260Z,79.48
2023-01-22T18:13:46.568Z,79.53
2023-01-22T18:16:49.433Z,79.56
2023-01-22T18:19:51.406Z,78.43
2023-01-22T18:22:53.576Z,79.12
2023-01-22T18:25:58.524Z,79.11
2023-01-22T18:29:00.062Z,78.30
2023-01-22T18:32:02.629Z,78.48
2023-01-22T18:35:05.755Z,79.74
2023-01-22T18:38:07.123Z,78.34
2023-01-22T18:41:10.656Z,79.88
2023-01-22T18:44:14.053Z,79.09
2023-01-22T18:47:16.593Z,79.84
2023-01-22T18:50:19.082Z,79.85
2023-01-22T18:53:21.834Z,79.41
2023-01-22T18:56:24.743Z,79.45
2023-01-22T18:59:27.336Z,80.17
2023-01-22T19:02:28.763Z,80.49
2023-01-22T19:05:30.848Z,80.16
2023-01-22T19:08:34.116Z,79.97
2023-01-22T19:11:38.013Z,79.92
2023-01-22T19:14:40.514Z,80.06
2023-01-22T19:17:43.052Z,79.79
2023-01-22T19:20:45.119Z,80.35
2023-01-22T19:23:51.231Z,80.34
2023-01-22T19:26:54.047Z,80.13
2023-01-22T19:29:55.491Z,79.23
2023-01-22T19:32:58.183Z,79.89
2023-01-22T19:36:00.299Z,79.84
2023-01-22T19:39:06.476Z,78.98
2023-01-22T19:42:07.842Z,79.09
2023-01-22T19:45:09.736Z,79.28
2023-01-22T19:48:11.295Z,79.90
2023-01-22T19:54:35.641Z,80.26
2023-01-22T20:00:59.850Z,79.66
2023-01-22T20:04:04.090Z,79.48
2023-01-22T20:07:06.028Z,80.40
2023-01-22T20:10:09.370Z,79.58
2023-01-22T20:13:11.179Z,79.98
2023-01-22T20:16:21.591Z,79.07
2023-01-22T20:19:24.491Z,80.59
2023-01-22T20:22:26.444Z,80.10
2023-01-22T20:25:30.891Z,79.27
2023-01-22T20:28:33.861Z,79.72
2023-01-22T20:31:36.606Z,79.42
2023-01-22T20:34:39.176Z,80.02
2023-01-22T20:37:41.144Z,80.22
2023-01-22T20:40:45.442Z,78.57
2023-01-22T20:43:46.807Z,77.53
2023-01-22T20:50:09.977Z,77.99
2023-01-22T20:53:11.899Z,78.75
2023-01-22T20:56:15.920Z,78.89
2023-01-22T20:59:18.550Z,78.95
2023-01-22T21:02:19.934Z,79.45
2023-01-22T21:05:21.523Z,79.70
2023-01-22T21:08:23.857Z,79.01
2023-01-22T21:11:28.757Z,78.28
2023-01-22T21:14:30.207Z,78.33
2023-01-22T21:17:35.135Z,78.61
2023-01-22T21:20:37.153Z,79.40
2023-01-22T21:23:40.507Z,79.58
2023-01-22T21:26:43.358Z,80.15
2023-01-22T21:29:44.672Z,78.92
2023-01-22T21:32:51.186Z,79.27
2023-01-22T21:35:52.534Z,78.81
2023-01-22T21:38:56.015Z,78.03
2023-01-22T21:42:13.719Z,77.72
2023-01-22T21:45:34.585Z,78.85
2023-01-22T21:48:36.224Z,79.24
2023-01-22T21:51:38.795Z,79.13
2023-01-22T21:54:41.522Z,78.42
2023-01-22T21:57:44.682Z,78.35
2023-01-22T22:00:46.336Z,79.17
2023-01-22T22:03:49.476Z,78.41
2023-01-22T22:06:50.923Z,78.88
2023-01-22T22:09:54.145Z,78.17
2023-01-22T22:12:55.663Z,78.52
2023-01-22T22:16:00.938Z,78.33
2023-01-22T22:19:06.154Z,78.16
2023-01-22T22:22:09.004Z,78.94
2023-01-22T22:25:12.278Z,78.64
2023-01-22T22:28:15.245Z,78.27
2023-01-22T22:31:16.840Z,79.04
2023-01-22T22:34:19.521Z,79.02
2023-01-22T22:37:21.677Z,78.36
2023-01-22T22:40:25.183Z,78.62
2023-01-22T22:46:47.946Z,77.88
2023-01-22T22:49:50.504Z,78.68
2023-01-22T22:52:51.814Z,79.22
2023-01-22T22:55:55.170Z,79.02
2023-01-22T22:58:59.400Z,79.17
2023-01-22T23:02:00.751Z,78.81
2023-01-22T23:05:03.246Z,78.91
2023-01-22T23:08:05.845Z,78.14
2023-01-22T23:11:10.850Z,78.60
2023-01-22T23:14:13.685Z,78.64
2023-01-22T23:17:15.008Z,78.63
2023-01-22T23:20:18.106Z,78.82
2023-01-22T23:23:19.584Z,78.89
2023-01-22T23:26:28.591Z,78.04
2023-01-22T23:29:29.886Z,77.19
2023-01-22T23:32:32.409Z,78.21
2023-01-22T23:35:35.023Z,77.90
2023-01-22T23:38:37.857Z,78.23
2023-01-22T23:41:40.074Z,78.69
2023-01-22T23:44:42.818Z,77.95
2023-01-22T23:47:44.111Z,79.12
2023-01-22T23:50:47.359Z,78.99
2023-01-22T23:53:50.877Z,79.06
2023-01-22T23:56:54.097Z,78.88
